Terminal Aerodrome Forecast
Issued by NWS

Home | Current Version | Previous Version | Text Only | Print | Product List | Glossary On
Versions: 1 2 3 4 5 6 7 8 9 10 11 12 13 14 15 16 17 18 19
741
FTUS43 KMPX 232338
TAFRWF
TAF
KRWF 232338Z 2400/2424 11012G20KT P6SM OVC009
     FM240600 13010KT 3SM BR OVC004
     FM241600 14012KT P6SM BKN008 OVC014
     FM241800 15014G22KT P6SM VCSH SCT020 BKN035
     FM242000 16017G25KT P6SM VCTS SCT025CB OVC040=

USA.gov is the U.S. government's official web portal to all federal, state and local government web resources and services.